Astroworld, Texas
Current Conditions -  °F | °C
As of 3:15 PM on Monday 22 Dec 2014 (Local Time) from KMCJ Reporting Station
Clear Clear  
Wind Chill: 72°   Ceiling: Unl
Heat Index: 72°   Visibility: NA
Dew Point: 61°   Wind: 0mph
Humidity: 69%   Direction: NA
Pressure: 29.59"   Gusts: NA
Location:  29.6867°N, 95.4345°W
Report Text: KMCJ 222115Z AUTO 00000KT CLR 22/16 A2959 RMK AO1
Loading
Personal Weather Stations






























Interactive Weather Map New forecast layout! Learn more

10-Day Weather Forecast

Advertisements
Track Severe Weather on mobile